Impacts METAR Board
IDs:

KMSY - New Orleans/Armstron, LA, US

Updated at: 2200 UTC 23 May 2018
Potential Impact None Slight Moderate High
Time 23/10Z 23/11Z 23/12Z 23/13Z 23/14Z 23/15Z 23/16Z 23/17Z 23/18Z 23/19Z 23/20Z 23/21Z 23/22Z
Temp74 74 76 80 84 84 87 88 89 90 91 81 87
Dewpt73 73 73 74 72 73 71 73 71 70 71 76 74
Altim30.00 30.02 30.04 30.05 30.06 30.07 30.08 30.08 30.05 30.03 30.02 30.01 30.00
VIS9 10 7 10 10 10 10 10 10 10 10 10 10
CIG-- -- -- -- -- -- -- -- -- -- -- -- --
CoverFEWSCTSCTFEWSCTSCTSCTSCTSCTFEWSCTSCTSCT
FltCatVFRVFRVFRVFRVFRVFRVFRVFRVFRVFRVFRVFRVFR
WX--------------------TS-RA--
WDir0170000340036036004000
WSpd0 3 0 0 0 5 6 8 6 0 9 0 6
WGst-- -- -- -- -- -- -- -- -- -- -- -- --
Raw hourly METARs
KMSY 230953Z 00000KT 9SM FEW025 FEW250 23/23 A3000 RMK AO2 SLP163 T02330228
KMSY 231053Z 17003KT 10SM FEW020 SCT250 23/23 A3002 RMK AO2 SLP168 T02330228
KMSY 231153Z 00000KT 7SM FEW020 SCT250 24/23 A3004 RMK AO2 SLP176 T02440228 10267 20228 53015
KMSY 231253Z 00000KT 10SM FEW030 27/23 A3005 RMK AO2 SLP179 T02670233
KMSY 231353Z 00000KT 10SM SCT022 29/22 A3006 RMK AO2 SLP181 T02890222
KMSY 231453Z 34005KT 10SM FEW028 SCT033 29/23 A3007 RMK AO2 SLP186 T02890228 53010
KMSY 231553Z VRB06KT 10SM SCT027 SCT033 31/22 A3008 RMK AO2 SLP188 T03060217
KMSY 231653Z 36008KT 340V050 10SM SCT032 31/23 A3008 RMK AO2 SLP187 T03110228
KMSY 231753Z 36006KT 10SM SCT040 SCT250 32/22 A3005 RMK AO2 LTG DSNT NE SLP180 CB DSNT NE AND E TCU DSNT SE AND S T03170217 10317 20244 58005
KMSY 231853Z 00000KT 10SM FEW045 FEW250 32/21 A3003 RMK AO2 LTG DSNT NE SLP173 CB DSNT NE E SW AND NW TCU DSNT S T03220211
KMSY 232004Z 04009KT 10SM TS FEW045CB SCT250 33/22 A3002 RMK AO2 LTG DSNT SW TSB03 OCNL LTGIC SE-S TS SE-S MOV STNRY CB DSNT NW-NE AND SW VCSH SE-S T03280217
KMSY 232101Z 00000KT 10SM -RA FEW035 SCT150 SCT250 27/24 A3001 RMK AO2 TSE00 TS DSIPTD CB DSNT NW-NE AND TCU DSNT SE P0002 T02720244 $
KMSY 232153Z VRB06KT 10SM FEW035 SCT250 31/23 A3000 RMK AO2 RAE05 TSE00 SLP161 CB DSNT NW-NE AND SE P0002 T03060233 $



Page loaded:  22:24 UTC  |   03:24 PM Pacific  |   04:24 PM Mountain  |   05:24 PM Central  |   06:24 PM Eastern

 

ADVISORIES

FORECASTS

FORECASTS

OBSERVATIONS

USER TOOLS

ABOUT US